Time;durP1;ratioP1;P1;durP2;ratioP2;P2;SDS_P1;SDS_P2;PMS_P1;PMS_P2;Temp;Humidity;BMP_temperature;BMP_pressure;BME280_temperature;BME280_humidity;BME280_pressure;Samples;Min_cycle;Max_cycle;Signal;HPM_P1;HPM_P2
2022/10/16 00:01:35;;;;;;;37.73;20.50;;;;;;;1.87;100.00;101936.56;1572675;91;21074;-72
2022/10/16 00:04:03;;;;;;;39.55;20.30;;;;;;;1.91;100.00;101943.39;1572690;91;21063;-71
2022/10/16 00:06:31;;;;;;;40.23;20.77;;;;;;;1.92;100.00;101940.00;1572727;91;21082;-72
2022/10/16 00:09:00;;;;;;;40.88;20.43;;;;;;;1.90;100.00;101941.23;1572645;91;21650;-73
2022/10/16 00:11:36;;;;;;;39.75;21.45;;;;;;;1.87;100.00;101946.71;1572537;90;21110;-71
2022/10/16 00:14:10;;;;;;;39.30;20.48;;;;;;;1.85;100.00;101946.69;1572740;90;21162;-72
2022/10/16 00:16:38;;;;;;;38.63;20.82;;;;;;;1.84;100.00;101947.92;1572715;91;21586;-71
2022/10/16 00:19:07;;;;;;;42.00;21.07;;;;;;;1.84;100.00;101943.69;1572877;91;21579;-72
2022/10/16 00:21:34;;;;;;;42.15;21.80;;;;;;;1.86;100.00;101942.45;1572640;89;21075;-71
2022/10/16 00:24:06;;;;;;;39.98;21.80;;;;;;;1.83;100.00;101948.77;1572799;91;21134;-72
2022/10/16 00:26:35;;;;;;;41.80;21.62;;;;;;;1.85;100.00;101942.03;1572705;91;21062;-72
2022/10/16 00:29:03;;;;;;;42.80;21.48;;;;;;;1.85;100.00;101940.34;1572678;89;21139;-72
2022/10/16 00:31:31;;;;;;;42.67;21.70;;;;;;;1.82;100.00;101946.62;1572844;91;21126;-72
2022/10/16 00:33:58;;;;;;;41.42;21.07;;;;;;;1.76;100.00;101943.98;1572823;91;21047;-72
2022/10/16 00:36:26;;;;;;;44.40;21.93;;;;;;;1.53;100.00;101952.52;1572860;90;21102;-71
2022/10/16 00:38:59;;;;;;;40.60;20.30;;;;;;;1.43;100.00;101959.54;1572631;91;21083;-72
2022/10/16 00:41:27;;;;;;;44.80;21.62;;;;;;;1.39;100.00;101963.70;1572833;91;21078;-72
2022/10/16 00:44:04;;;;;;;36.05;18.90;;;;;;;1.32;100.00;101961.48;1572758;91;21127;-72
2022/10/16 00:46:42;;;;;;;39.30;20.40;;;;;;;1.29;100.00;101960.56;1572992;91;21066;-72
2022/10/16 00:49:14;;;;;;;32.93;17.40;;;;;;;1.24;100.00;101962.15;1572791;91;21142;-72
2022/10/16 00:51:48;;;;;;;32.17;16.17;;;;;;;1.18;100.00;101959.12;1572325;90;21196;-72
2022/10/16 00:54:23;;;;;;;36.05;16.75;;;;;;;1.16;100.00;101958.23;1572882;91;21562;-72
2022/10/16 00:56:51;;;;;;;33.35;16.50;;;;;;;1.16;100.00;101954.43;1572147;91;21608;-72
2022/10/16 00:59:26;;;;;;;33.18;16.95;;;;;;;1.19;100.00;101959.54;1572503;89;21136;-72
2022/10/16 01:01:56;;;;;;;32.65;16.67;;;;;;;1.18;100.00;101952.35;1572878;89;21087;-72
2022/10/16 01:04:26;;;;;;;31.85;16.50;;;;;;;1.19;100.00;101959.54;1572534;91;21083;-72
2022/10/16 01:07:01;;;;;;;32.30;16.90;;;;;;;1.19;100.00;101955.73;1572840;89;21613;-72
2022/10/16 01:09:54;;;;;;;29.75;15.80;;;;;;;1.18;100.00;101953.62;1572710;89;21174;-72
2022/10/16 01:12:49;;;;;;;30.55;16.32;;;;;;;1.18;100.00;101954.89;1572891;91;21562;-72
2022/10/16 01:15:42;;;;;;;30.00;15.75;;;;;;;1.18;100.00;101953.62;1572652;91;21160;-72
2022/10/16 01:18:54;;;;;;;28.92;17.10;;;;;;;1.16;100.00;101951.89;1572915;91;21070;-71
2022/10/16 01:21:38;;;;;;;32.35;17.62;;;;;;;1.08;100.00;101954.28;1572575;91;21559;-72
2022/10/16 01:24:29;;;;;;;33.48;17.60;;;;;;;1.02;100.00;101952.91;1572831;91;21090;-72
2022/10/16 01:27:16;;;;;;;31.62;16.90;;;;;;;0.97;100.00;101954.09;1572126;91;21059;-72
2022/10/16 01:30:09;;;;;;;36.50;18.15;;;;;;;0.91;100.00;101951.45;1560597;91;21507;-72
2022/10/16 01:32:54;;;;;;;36.13;17.77;;;;;;;0.90;100.00;101955.21;1572818;91;21079;-73
2022/10/16 01:35:27;;;;;;;34.83;17.85;;;;;;;0.86;100.00;101960.62;1572582;90;21111;-73
2022/10/16 01:38:11;;;;;;;35.83;18.92;;;;;;;0.81;100.00;101954.59;1572646;91;21110;-72
2022/10/16 01:40:44;;;;;;;32.48;18.10;;;;;;;0.82;100.00;101958.02;1572998;91;21089;-73
2022/10/16 01:43:16;;;;;;;34.53;17.60;;;;;;;0.81;100.00;101953.33;1572743;91;21070;-73
2022/10/16 01:45:45;;;;;;;35.85;18.65;;;;;;;0.85;100.00;101955.52;1572742;91;21082;-73
2022/10/16 01:48:19;;;;;;;31.95;17.65;;;;;;;0.82;100.00;101962.66;1572860;90;21070;-72
2022/10/16 01:51:07;;;;;;;32.23;17.52;;;;;;;0.76;100.00;101963.39;1572755;91;21098;-73
2022/10/16 01:53:34;;;;;;;45.35;21.05;;;;;;;0.72;100.00;101965.42;1572694;91;21102;-73
2022/10/16 01:56:05;;;;;;;38.90;19.60;;;;;;;0.66;100.00;101964.03;1572704;89;21077;-73
2022/10/16 01:58:36;;;;;;;37.50;19.27;;;;;;;0.66;100.00;101961.92;1572733;90;21109;-73
2022/10/16 02:01:07;;;;;;;39.90;19.35;;;;;;;0.68;100.00;101958.58;1572649;90;21153;-73
2022/10/16 02:03:37;;;;;;;37.23;18.75;;;;;;;0.72;100.00;101962.04;1572664;89;21122;-73
2022/10/16 02:06:04;;;;;;;35.95;18.57;;;;;;;0.68;100.00;101962.38;1572735;90;21573;-73
2022/10/16 02:08:33;;;;;;;38.02;18.37;;;;;;;0.68;100.00;101955.20;1572601;89;21117;-73
2022/10/16 02:11:01;;;;;;;35.68;18.30;;;;;;;0.69;100.00;101955.63;1572562;90;21158;-73
2022/10/16 02:13:40;;;;;;;36.73;17.85;;;;;;;0.65;100.00;101952.59;1572611;91;21133;-73
2022/10/16 02:16:11;;;;;;;32.98;17.25;;;;;;;0.64;100.00;101958.08;1572702;91;21635;-73
2022/10/16 02:18:42;;;;;;;33.45;17.92;;;;;;;0.63;100.00;101954.23;1572817;91;21126;-73
2022/10/16 02:21:21;;;;;;;35.88;18.35;;;;;;;0.65;100.00;101955.13;1572625;91;21131;-73
2022/10/16 02:23:59;;;;;;;33.80;17.67;;;;;;;0.61;100.00;101955.50;1572801;91;21557;-73
2022/10/16 02:26:40;;;;;;;30.25;16.70;;;;;;;0.59;100.00;101960.95;1573074;89;21107;-73
2022/10/16 02:29:11;;;;;;;27.95;16.40;;;;;;;0.55;100.00;101961.29;1572828;91;21141;-73
2022/10/16 02:31:43;;;;;;;30.27;17.00;;;;;;;0.52;100.00;101962.48;1572883;91;21098;-73
2022/10/16 02:34:12;;;;;;;34.63;18.17;;;;;;;0.53;100.00;101969.27;1572931;89;21536;-73
2022/10/16 02:36:41;;;;;;;31.42;16.85;;;;;;;0.50;100.00;101976.80;1572652;91;21094;-73
2022/10/16 02:39:10;;;;;;;31.73;17.67;;;;;;;0.46;100.00;101982.63;1572836;90;21604;-73
2022/10/16 02:41:37;;;;;;;31.33;17.37;;;;;;;0.45;100.00;101983.88;1572636;89;21075;-72
2022/10/16 02:44:04;;;;;;;27.75;16.12;;;;;;;0.45;100.00;101981.34;1551490;91;21146;-73
2022/10/16 02:46:32;;;;;;;34.30;17.05;;;;;;;0.42;100.00;101977.47;1572870;91;21094;-73
2022/10/16 02:49:00;;;;;;;28.25;16.17;;;;;;;0.42;100.00;101977.05;1572735;91;21158;-73
2022/10/16 02:51:27;;;;;;;34.83;16.17;;;;;;;0.41;100.00;101984.22;1572808;90;21590;-73
2022/10/16 02:53:53;;;;;;;29.67;16.35;;;;;;;0.38;100.00;101987.94;1572700;90;21117;-73
2022/10/16 02:56:20;;;;;;;29.72;16.20;;;;;;;0.36;100.00;101985.36;1572900;89;21038;-73
2022/10/16 02:58:48;;;;;;;32.67;16.73;;;;;;;0.34;100.00;101989.95;1572613;89;21103;-73
2022/10/16 03:01:16;;;;;;;30.65;16.25;;;;;;;0.27;100.00;101999.11;1572862;91;21086;-73
2022/10/16 03:03:43;;;;;;;29.45;16.30;;;;;;;0.27;100.00;101985.17;1573045;90;21082;-73
2022/10/16 03:06:10;;;;;;;26.50;16.45;;;;;;;0.32;100.00;101991.60;1572820;91;21606;-73
2022/10/16 03:08:37;;;;;;;29.65;15.83;;;;;;;0.32;100.00;101994.13;1572731;91;21074;-73
2022/10/16 03:11:05;;;;;;;27.77;16.57;;;;;;;0.30;100.00;101995.78;1572692;91;21102;-73
2022/10/16 03:13:32;;;;;;;30.27;16.02;;;;;;;0.26;100.00;102000.33;1572659;91;21039;-73
2022/10/16 03:15:59;;;;;;;32.10;16.48;;;;;;;0.27;100.00;102002.05;1573031;91;21130;-73
2022/10/16 03:18:27;;;;;;;29.37;17.05;;;;;;;0.24;100.00;102001.97;1572780;91;21051;-73
2022/10/16 03:20:54;;;;;;;32.48;16.90;;;;;;;0.22;100.00;102001.09;1572926;90;21118;-73
2022/10/16 03:23:21;;;;;;;29.32;16.20;;;;;;;0.26;100.00;101995.27;1572596;91;21074;-72
2022/10/16 03:25:48;;;;;;;25.57;15.93;;;;;;;0.25;100.00;102000.75;1572680;91;21647;-73
2022/10/16 03:28:16;;;;;;;27.62;15.98;;;;;;;0.27;100.00;101995.73;1572681;90;21098;-73
2022/10/16 03:30:44;;;;;;;28.05;16.70;;;;;;;0.28;100.00;101993.63;1572919;89;21574;-73
2022/10/16 03:33:11;;;;;;;29.98;16.17;;;;;;;0.27;100.00;101987.70;1572584;91;21082;-73
2022/10/16 03:35:39;;;;;;;31.05;16.42;;;;;;;0.25;100.00;101999.48;1572587;91;21107;-73
2022/10/16 03:38:06;;;;;;;28.12;15.60;;;;;;;0.22;100.00;101996.87;1572690;89;21162;-73
2022/10/16 03:40:35;;;;;;;29.45;16.40;;;;;;;0.18;100.00;102001.42;1572619;91;21106;-73
2022/10/16 03:43:01;;;;;;;32.50;17.15;;;;;;;0.14;100.00;102000.52;1572861;91;21087;-73
2022/10/16 03:45:28;;;;;;;29.48;16.10;;;;;;;0.11;100.00;101996.63;1572600;91;21054;-73
2022/10/16 03:47:55;;;;;;;32.40;16.52;;;;;;;0.12;100.00;101995.83;1572865;90;21158;-73
2022/10/16 03:50:22;;;;;;;30.10;16.05;;;;;;;0.11;100.00;101993.25;1572192;89;21055;-73
2022/10/16 03:52:50;;;;;;;28.98;15.95;;;;;;;0.08;100.00;101999.11;1598173;89;21150;-73
2022/10/16 03:55:17;;;;;;;25.82;15.43;;;;;;;0.10;100.00;101992.41;1602372;89;21059;-72
2022/10/16 03:57:43;;;;;;;28.05;16.02;;;;;;;0.07;100.00;101989.79;1602555;89;21114;-73
2022/10/16 04:00:12;;;;;;;27.25;15.28;;;;;;;0.08;100.00;101987.72;1602263;89;21530;-72
2022/10/16 04:02:39;;;;;;;30.88;16.30;;;;;;;0.09;100.00;101999.54;1602659;89;21062;-73
2022/10/16 04:05:07;;;;;;;29.55;16.57;;;;;;;0.04;100.00;101994.80;1602537;89;21074;-73
2022/10/16 04:07:34;;;;;;;30.72;16.25;;;;;;;0.02;100.00;101995.17;1602580;89;21051;-73
2022/10/16 04:10:02;;;;;;;30.95;16.15;;;;;;;0.05;100.00;101997.76;1602366;89;21067;-73
2022/10/16 04:12:29;;;;;;;32.67;15.90;;;;;;;0.10;100.00;101997.86;1602309;89;21086;-73
2022/10/16 04:14:57;;;;;;;31.87;15.75;;;;;;;0.07;100.00;102006.25;1602274;89;21064;-73
2022/10/16 04:17:24;;;;;;;28.15;15.32;;;;;;;0.07;100.00;102007.93;1602613;89;21043;-73
2022/10/16 04:19:51;;;;;;;32.03;16.23;;;;;;;0.08;100.00;102002.91;1602478;89;21044;-73
2022/10/16 04:22:17;;;;;;;35.68;16.48;;;;;;;0.13;100.00;102005.12;1602445;89;21642;-73
2022/10/16 04:24:45;;;;;;;37.25;16.17;;;;;;;0.16;100.00;102010.27;1602505;89;21076;-72
2022/10/16 04:27:11;;;;;;;32.15;16.48;;;;;;;0.21;100.00;102009.52;1602552;89;21590;-73
2022/10/16 04:29:38;;;;;;;27.58;15.43;;;;;;;0.24;100.00;102009.16;1602374;89;21071;-73
2022/10/16 04:32:08;;;;;;;33.67;16.05;;;;;;;0.25;100.00;102015.95;1602312;89;21571;-73
2022/10/16 04:34:38;;;;;;;29.95;15.60;;;;;;;0.22;100.00;102018.81;1602253;89;21075;-72
2022/10/16 04:37:06;;;;;;;30.15;15.90;;;;;;;0.27;100.00;102018.10;1601812;89;21564;-73
2022/10/16 04:39:33;;;;;;;25.55;14.58;;;;;;;0.31;100.00;102022.84;1602350;89;21048;-73
2022/10/16 04:42:00;;;;;;;29.27;15.90;;;;;;;0.35;100.00;102024.61;1602300;89;21087;-73
2022/10/16 04:44:27;;;;;;;27.82;16.67;;;;;;;0.43;100.00;102025.64;1602201;89;21055;-72
2022/10/16 04:46:55;;;;;;;39.95;20.27;;;;;;;0.73;100.00;102022.03;1602290;89;21067;-73
2022/10/16 04:49:22;;;;;;;43.52;22.22;;;;;;;1.16;100.00;102014.88;1602523;89;21125;-73
2022/10/16 04:51:50;;;;;;;40.58;22.17;;;;;;;1.74;100.00;102002.34;1602602;89;21060;-73
2022/10/16 04:54:17;;;;;;;36.95;20.85;;;;;;;2.07;100.00;102001.20;1602397;89;21043;-72
2022/10/16 04:56:47;;;;;;;41.20;21.62;;;;;;;2.23;100.00;101994.66;1602499;89;21090;-73
2022/10/16 04:59:15;;;;;;;38.60;19.40;;;;;;;2.38;100.00;101990.20;1602316;89;21162;-73
2022/10/16 05:01:41;;;;;;;31.75;17.48;;;;;;;2.40;100.00;101993.19;1602093;89;21646;-73
2022/10/16 05:04:09;;;;;;;29.77;16.75;;;;;;;2.15;100.00;102000.89;1602376;89;21625;-73
2022/10/16 05:06:38;;;;;;;29.65;16.40;;;;;;;1.91;100.00;102023.37;1602187;89;21055;-73
2022/10/16 05:09:07;;;;;;;29.77;16.97;;;;;;;1.85;100.00;102025.81;1602373;89;21067;-73
2022/10/16 05:11:35;;;;;;;30.97;16.07;;;;;;;1.82;100.00;102034.22;1602354;89;21063;-72
2022/10/16 05:14:03;;;;;;;30.68;16.27;;;;;;;1.82;100.00;102039.72;1583169;89;21077;-73
2022/10/16 05:16:30;;;;;;;27.13;16.05;;;;;;;1.84;100.00;102054.14;1562781;90;21081;-73
2022/10/16 05:18:57;;;;;;;32.15;18.25;;;;;;;1.84;100.00;102051.59;1571431;90;21118;-72
2022/10/16 05:21:25;;;;;;;33.00;18.95;;;;;;;2.21;100.00;102045.86;1578051;90;21094;-72
2022/10/16 05:23:54;;;;;;;35.60;19.35;;;;;;;2.59;100.00;102041.30;1572492;91;21153;-73
2022/10/16 05:26:22;;;;;;;33.98;18.35;;;;;;;3.01;100.00;102023.61;1572667;91;21083;-73
2022/10/16 05:28:50;;;;;;;32.40;18.52;;;;;;;3.56;100.00;102016.12;1572529;91;21563;-72
2022/10/16 05:31:18;;;;;;;29.82;18.37;;;;;;;3.56;100.00;102016.12;1572862;91;21102;-72
2022/10/16 05:33:45;;;;;;;30.48;17.70;;;;;;;3.78;100.00;102027.35;1572564;89;21127;-73
2022/10/16 05:36:12;;;;;;;27.20;16.27;;;;;;;3.94;100.00;102020.69;1572538;90;21597;-72
2022/10/16 05:38:41;;;;;;;26.40;16.07;;;;;;;4.09;100.00;102030.98;1572473;91;21078;-73
2022/10/16 05:41:08;;;;;;;27.45;16.42;;;;;;;4.25;100.00;102032.38;1572681;91;21067;-73
2022/10/16 05:43:35;;;;;;;22.40;14.73;;;;;;;4.39;100.00;102034.59;1572923;89;21083;-72
2022/10/16 05:46:05;;;;;;;26.65;15.58;;;;;;;4.56;100.00;102041.92;1567612;91;21562;-73
2022/10/16 05:48:33;;;;;;;24.47;13.98;;;;;;;4.72;100.00;102041.98;1570603;91;21618;-73
2022/10/16 05:51:10;;;;;;;21.80;12.70;;;;;;;4.87;100.00;102050.16;1569963;91;21095;-73
2022/10/16 05:53:39;;;;;;;21.25;12.78;;;;;;;5.05;100.00;102064.27;1570575;90;21040;-73
2022/10/16 05:56:09;;;;;;;21.55;12.80;;;;;;;5.19;100.00;102077.92;1570368;91;21087;-73
2022/10/16 05:58:40;;;;;;;20.77;12.15;;;;;;;5.27;100.00;102085.62;1552859;91;21612;-73
2022/10/16 06:01:11;;;;;;;21.87;12.90;;;;;;;5.42;100.00;102102.24;1572605;91;21094;-73
2022/10/16 06:03:39;;;;;;;21.68;12.60;;;;;;;5.50;100.00;102110.37;1572471;91;21605;-73
2022/10/16 06:06:15;;;;;;;19.02;12.47;;;;;;;5.59;100.00;102116.76;1572569;91;21082;-73
2022/10/16 06:08:46;;;;;;;19.57;11.97;;;;;;;5.68;100.00;102122.30;1563112;91;21053;-73
2022/10/16 06:11:24;;;;;;;18.52;11.48;;;;;;;5.77;100.00;102137.23;1575485;90;21082;-73
2022/10/16 06:13:56;;;;;;;21.12;12.13;;;;;;;5.83;100.00;102143.63;1572411;91;21175;-73
2022/10/16 06:16:26;;;;;;;17.10;11.53;;;;;;;5.96;100.00;102151.36;1572576;90;21043;-73
2022/10/16 06:18:56;;;;;;;20.62;11.88;;;;;;;6.03;100.00;102156.92;1572663;91;21125;-73
2022/10/16 06:21:26;;;;;;;20.95;12.20;;;;;;;6.11;100.00;102162.89;1572537;91;21058;-73
2022/10/16 06:23:56;;;;;;;18.52;11.40;;;;;;;6.19;100.00;102163.75;1572503;91;21123;-73
2022/10/16 06:26:28;;;;;;;18.45;10.80;;;;;;;6.31;100.00;102170.58;1573319;91;20997;-73
2022/10/16 06:28:58;;;;;;;17.02;10.68;;;;;;;6.40;100.00;102169.28;1582167;89;20999;-73
2022/10/16 06:31:30;;;;;;;16.48;10.18;;;;;;;6.52;100.00;102168.44;1583153;89;21104;-73
2022/10/16 06:33:57;;;;;;;17.52;10.63;;;;;;;6.60;100.00;102174.83;1577836;89;21073;-73
2022/10/16 06:36:24;;;;;;;20.00;10.90;;;;;;;6.72;100.00;102177.81;1584060;89;20975;-73
2022/10/16 06:38:52;;;;;;;16.48;10.43;;;;;;;6.81;100.00;102176.10;1572834;89;21078;-73
2022/10/16 06:41:22;;;;;;;18.95;11.28;;;;;;;6.92;100.00;102183.75;1575903;91;21056;-73
2022/10/16 06:43:49;;;;;;;17.32;10.68;;;;;;;6.98;100.00;102191.41;1579535;89;21011;-72
2022/10/16 06:46:19;;;;;;;18.30;10.50;;;;;;;7.05;100.00;102196.09;1582366;89;21036;-73
2022/10/16 06:48:46;;;;;;;14.53;9.73;;;;;;;7.18;100.00;102191.38;1581143;89;21081;-73
2022/10/16 06:51:20;;;;;;;14.58;9.85;;;;;;;7.32;100.00;102193.02;1578712;89;21076;-73
2022/10/16 06:53:51;;;;;;;13.90;9.38;;;;;;;7.45;100.00;102206.22;1584172;89;21047;-73
2022/10/16 06:56:21;;;;;;;13.25;9.20;;;;;;;7.59;100.00;102195.92;1572428;91;21070;-73
2022/10/16 06:58:49;;;;;;;13.68;8.40;;;;;;;7.69;100.00;102197.58;1572258;91;21209;-72
2022/10/16 07:01:21;;;;;;;13.43;8.55;;;;;;;7.83;100.00;102196.23;1572346;91;21138;-72
2022/10/16 07:03:49;;;;;;;12.18;8.18;;;;;;;8.03;100.00;102203.81;1572586;91;21118;-72
2022/10/16 07:06:21;;;;;;;12.50;7.97;;;;;;;8.18;100.00;102207.54;1572374;91;21086;-73
2022/10/16 07:08:50;;;;;;;14.10;8.18;;;;;;;8.35;100.00;102211.70;1572557;91;21087;-73
2022/10/16 07:11:20;;;;;;;13.35;8.35;;;;;;;8.46;100.00;102211.23;1572411;90;21055;-73
2022/10/16 07:13:50;;;;;;;18.65;9.33;;;;;;;8.58;100.00;102212.84;1572620;91;21071;-73
2022/10/16 07:16:20;;;;;;;16.32;9.55;;;;;;;8.65;100.00;102209.78;1572405;91;21099;-73
2022/10/16 07:18:51;;;;;;;16.37;8.83;;;;;;;8.61;100.00;102220.06;1572550;91;21059;-73
2022/10/16 07:21:22;;;;;;;13.75;8.65;;;;;;;8.72;100.00;102221.69;1572310;91;21086;-73
2022/10/16 07:23:55;;;;;;;15.30;9.98;;;;;;;8.78;100.00;102217.38;1575384;89;21119;-73
2022/10/16 07:26:23;;;;;;;21.62;11.60;;;;;;;8.93;100.00;102223.23;1579574;91;21157;-73
2022/10/16 07:28:50;;;;;;;18.70;10.60;;;;;;;8.99;100.00;102230.43;1579540;91;21129;-73
2022/10/16 07:31:20;;;;;;;16.12;9.65;;;;;;;9.16;100.00;102232.81;1579520;91;21065;-73
2022/10/16 07:33:48;;;;;;;20.30;10.80;;;;;;;9.28;100.00;102234.41;1571593;91;21085;-73
2022/10/16 07:36:17;;;;;;;25.65;9.23;;;;;;;9.47;100.00;102228.64;1568990;91;21117;-73
2022/10/16 07:38:46;;;;;;;13.30;6.25;;;;;;;9.66;100.00;102241.27;1570480;90;21153;-73
2022/10/16 07:41:18;;;;;;;14.45;6.75;;;;;;;9.86;100.00;102239.73;1579499;91;21567;-73
2022/10/16 07:43:51;;;;;;;16.45;7.05;;;;;;;10.05;100.00;102240.33;1579523;91;21163;-73
2022/10/16 07:46:19;;;;;;;16.48;7.70;;;;;;;10.10;100.00;102247.56;1579619;89;21088;-73
2022/10/16 07:48:48;;;;;;;17.77;6.90;;;;;;;10.26;100.00;102246.46;1579367;89;21116;-72
2022/10/16 07:51:21;;;;;;;18.77;8.23;;;;;;;10.38;100.00;102251.87;1579625;89;21049;-73
2022/10/16 07:53:49;;;;;;;36.75;20.05;;;;;;;10.52;100.00;102251.66;1579830;89;21577;-73
2022/10/16 07:56:18;;;;;;;23.52;13.00;;;;;;;10.61;100.00;102245.09;1578588;89;21065;-72
2022/10/16 07:58:49;;;;;;;15.25;9.15;;;;;;;10.75;100.00;102248.28;1579319;89;21104;-73
2022/10/16 08:01:18;;;;;;;10.03;5.90;;;;;;;10.91;100.00;102252.73;1578726;89;21068;-73
2022/10/16 08:03:50;;;;;;;11.18;5.47;;;;;;;10.83;100.00;102251.58;1578666;89;21604;-73
2022/10/16 08:06:19;;;;;;;7.15;4.62;;;;;;;10.95;100.00;102248.38;1576768;89;21040;-73
2022/10/16 08:08:47;;;;;;;9.83;4.70;;;;;;;11.09;100.00;102244.24;1577414;89;21040;-73
2022/10/16 08:11:14;;;;;;;11.15;5.62;;;;;;;11.14;100.00;102245.86;1572114;91;21048;-73
2022/10/16 08:13:42;;;;;;;8.00;4.78;;;;;;;11.20;100.00;102238.02;1576210;89;21060;-73
2022/10/16 08:16:09;;;;;;;12.40;5.47;;;;;;;11.34;100.00;102235.62;1553774;91;21563;-73
2022/10/16 08:18:39;;;;;;;12.80;4.65;;;;;;;11.40;100.00;102237.64;1574701;90;21083;-73
2022/10/16 08:21:13;;;;;;;10.08;4.80;;;;;;;11.43;100.00;102238.88;1576172;89;21064;-73
2022/10/16 08:23:40;;;;;;;11.88;4.78;;;;;;;11.47;100.00;102240.94;1574614;91;21596;-73
2022/10/16 08:26:08;;;;;;;10.50;5.78;;;;;;;11.49;100.00;102249.94;1576062;89;21091;-73
2022/10/16 08:28:36;;;;;;;15.45;11.50;;;;;;;11.58;100.00;102245.45;1564837;90;21602;-72
2022/10/16 08:31:15;;;;;;;8.40;6.65;;;;;;;11.66;100.00;102252.16;1564772;89;21161;-72
2022/10/16 08:33:46;;;;;;;12.85;8.13;;;;;;;11.70;100.00;102242.19;1570398;90;21090;-73
2022/10/16 08:36:15;;;;;;;9.13;6.60;;;;;;;11.77;100.00;102247.19;1605603;88;21091;-72
2022/10/16 08:38:43;;;;;;;9.18;4.97;;;;;;;11.75;100.00;102246.38;1587262;89;21174;-73
2022/10/16 08:41:19;;;;;;;8.03;4.30;;;;;;;11.83;100.00;102253.96;1567499;90;21080;-72
2022/10/16 08:44:23;;;;;;;11.15;4.42;;;;;;;11.83;100.00;102248.35;1587051;89;21535;-73
2022/10/16 08:47:24;;;;;;;6.95;3.90;;;;;;;11.83;100.00;102259.12;1580400;90;21149;-72
2022/10/16 08:50:04;;;;;;;6.58;4.08;;;;;;;11.83;100.00;102253.52;1579390;89;21117;-72
2022/10/16 08:52:35;;;;;;;7.95;4.00;;;;;;;11.78;100.00;102248.03;1575568;89;21107;-72
2022/10/16 08:55:04;;;;;;;7.37;4.12;;;;;;;11.89;100.00;102240.12;1592248;89;21106;-72
2022/10/16 08:57:33;;;;;;;7.92;4.30;;;;;;;11.93;100.00;102241.75;1593784;89;21059;-72
2022/10/16 09:00:14;;;;;;;7.03;4.70;;;;;;;11.95;100.00;102233.53;1582967;89;21401;-72
2022/10/16 09:03:03;;;;;;;6.22;4.42;;;;;;;11.92;100.00;102236.16;1583215;90;21645;-72
2022/10/16 09:06:02;;;;;;;8.18;4.42;;;;;;;11.98;100.00;102230.86;1574109;90;21059;-72
2022/10/16 09:08:57;;;;;;;7.47;4.78;;;;;;;12.03;100.00;102226.46;1608485;87;21060;-72
2022/10/16 09:11:49;;;;;;;7.50;4.10;;;;;;;12.13;100.00;102230.53;1582361;90;21133;-72
2022/10/16 09:14:36;;;;;;;10.00;4.95;;;;;;;12.14;100.00;102225.75;1603263;88;21126;-72
2022/10/16 09:17:19;;;;;;;11.30;4.67;;;;;;;12.26;100.00;102231.53;1596292;89;21074;-72
2022/10/16 09:20:03;;;;;;;8.65;4.75;;;;;;;12.31;100.00;102236.16;1616754;87;21122;-72
2022/10/16 09:22:31;;;;;;;;;;;;;;;12.40;100.00;102230.31;1596135;87;21585;-72
2022/10/16 09:25:04;;;;;;;6.83;4.40;;;;;;;12.46;100.00;102216.41;1583059;89;20490;-72
2022/10/16 09:27:32;;;;;;;5.92;4.28;;;;;;;12.42;100.00;102223.37;1599520;89;21095;-72
2022/10/16 09:29:59;;;;;;;8.28;5.17;;;;;;;12.48;100.00;102217.22;1596359;89;21130;-72
2022/10/16 09:32:26;;;;;;;10.45;7.03;;;;;;;12.56;100.00;102219.16;1591854;89;21047;-72
2022/10/16 09:34:58;;;;;;;8.95;5.22;;;;;;;12.68;100.00;102218.02;1557984;89;21563;-72
2022/10/16 09:37:26;;;;;;;8.85;6.55;;;;;;;12.72;100.00;102216.20;1590831;89;21587;-72
2022/10/16 09:39:54;;;;;;;6.95;4.25;;;;;;;12.83;100.00;102224.52;1603655;89;21079;-72
2022/10/16 09:42:34;;;;;;;7.28;4.22;;;;;;;12.79;100.00;102222.89;1580355;89;21571;-72
2022/10/16 09:45:02;;;;;;;8.15;4.20;;;;;;;12.81;100.00;102218.11;1559596;90;21136;-72
2022/10/16 09:47:31;;;;;;;8.85;4.10;;;;;;;12.96;100.00;102216.85;1561679;90;21081;-72
2022/10/16 09:50:06;;;;;;;7.22;3.72;;;;;;;13.08;100.00;102216.97;1574216;91;21173;-72
2022/10/16 09:52:33;;;;;;;5.25;3.47;;;;;;;13.06;100.00;102211.41;1547729;90;21054;-73
2022/10/16 09:55:14;;;;;;;5.25;3.40;;;;;;;13.22;100.00;102207.55;1586054;89;21615;-72
2022/10/16 09:57:55;;;;;;;7.03;3.62;;;;;;;13.31;100.00;102210.34;1589075;89;21042;-72
2022/10/16 10:00:24;;;;;;;5.17;4.00;;;;;;;13.36;100.00;102214.50;1596190;89;21119;-73
2022/10/16 10:02:53;;;;;;;6.33;3.58;;;;;;;13.31;100.00;102207.75;1561760;91;21115;-72
2022/10/16 10:05:26;;;;;;;11.53;3.55;;;;;;;13.39;100.00;102207.09;1563108;91;21583;-72
2022/10/16 10:08:00;;;;;;;5.65;3.85;;;;;;;13.42;97.86;102206.98;1560951;91;21679;-72
2022/10/16 10:10:30;;;;;;;5.60;3.90;;;;;;;13.50;98.39;102205.02;1555703;90;21113;-73
2022/10/16 10:12:58;;;;;;;7.22;3.60;;;;;;;13.51;100.00;102198.97;1570403;90;21093;-72
2022/10/16 10:15:30;;;;;;;6.55;3.65;;;;;;;13.52;100.00;102199.36;1565164;91;21635;-72
2022/10/16 10:17:58;;;;;;;8.50;4.60;;;;;;;13.53;100.00;102202.36;1568074;90;21036;-73
2022/10/16 10:20:38;;;;;;;8.00;3.95;;;;;;;13.62;100.00;102203.82;1564505;90;21084;-73
2022/10/16 10:23:21;;;;;;;8.43;4.70;;;;;;;13.62;100.00;102193.47;1570174;90;21090;-72
2022/10/16 10:26:15;;;;;;;5.15;3.47;;;;;;;13.58;100.00;102190.15;1576490;90;21108;-73
2022/10/16 10:29:08;;;;;;;6.65;4.20;;;;;;;13.62;100.00;102187.88;1576485;90;21103;-73
2022/10/16 10:31:53;;;;;;;6.20;3.80;;;;;;;13.67;99.48;102183.00;1549062;90;21094;-72
2022/10/16 10:34:38;;;;;;;5.95;3.98;;;;;;;13.70;100.00;102179.02;1564803;90;21111;-73
2022/10/16 10:37:29;;;;;;;;;;;;;;;13.72;100.00;102179.81;1575239;91;21620;-72
2022/10/16 10:40:13;;;;;;;13.75;4.08;;;;;;;13.67;100.00;102175.24;1575838;91;20125;-73
2022/10/16 10:42:53;;;;;;;12.98;9.60;;;;;;;13.77;99.40;102174.91;1575651;91;21087;-73
2022/10/16 10:45:28;;;;;;;7.25;5.62;;;;;;;13.84;97.63;102172.96;1573378;91;21063;-73
2022/10/16 10:48:16;;;;;;;7.60;4.22;;;;;;;13.91;95.85;102174.91;1565968;91;21114;-72
2022/10/16 10:51:03;;;;;;;9.93;7.40;;;;;;;13.95;94.81;102174.78;1576481;91;21064;-72
2022/10/16 10:54:10;;;;;;;4.90;3.75;;;;;;;14.00;93.80;102182.39;1573662;91;21614;-73
2022/10/16 10:57:03;;;;;;;4.40;3.10;;;;;;;13.92;97.33;102176.16;1572043;91;21651;-72
2022/10/16 11:00:19;;;;;;;6.10;3.90;;;;;;;13.88;94.26;102182.33;1571879;91;21169;-73
2022/10/16 11:03:13;;;;;;;9.08;4.65;;;;;;;13.92;86.87;102181.79;1574803;89;21132;-72
2022/10/16 11:05:51;;;;;;;9.65;3.45;;;;;;;13.86;87.88;102181.53;1569128;91;21080;-72
2022/10/16 11:08:23;;;;;;;6.30;4.50;;;;;;;13.88;91.94;102176.31;1574766;88;21067;-72
2022/10/16 11:11:20;;;;;;;5.25;3.83;;;;;;;13.94;95.78;102182.13;1580110;89;21082;-72
2022/10/16 11:14:00;;;;;;;7.05;3.55;;;;;;;13.98;85.94;102185.48;1578005;90;21084;-73
2022/10/16 11:16:39;;;;;;;4.47;3.72;;;;;;;13.91;87.85;102174.48;1570716;91;21044;-72
2022/10/16 11:19:29;;;;;;;6.50;3.77;;;;;;;13.88;91.34;102174.56;1573483;89;21115;-72
2022/10/16 11:22:13;;;;;;;6.75;4.20;;;;;;;13.79;95.78;102174.86;1585363;89;21032;-73
2022/10/16 11:25:13;;;;;;;6.50;3.95;;;;;;;13.94;91.27;102173.07;1578450;89;21558;-73
2022/10/16 11:27:55;;;;;;;7.00;4.03;;;;;;;14.00;91.94;102173.33;1545112;92;21092;-73
2022/10/16 11:30:27;;;;;;;4.80;3.58;;;;;;;13.93;96.72;102170.09;1561997;91;21072;-73
2022/10/16 11:33:12;;;;;;;6.92;3.70;;;;;;;14.00;100.00;102168.99;1570329;89;21110;-72
2022/10/16 11:36:18;;;;;;;6.92;4.22;;;;;;;14.02;96.09;102174.97;1573935;90;21608;-72
2022/10/16 11:39:00;;;;;;;6.92;4.20;;;;;;;14.01;94.03;102170.70;1573831;89;21103;-72